createdAt,value
2019-05-30T00:00:31.820Z,11.60
2019-05-30T00:03:02.319Z,12.00
2019-05-30T00:05:32.049Z,12.00
2019-05-30T00:08:02.435Z,11.90
2019-05-30T00:10:31.976Z,11.30
2019-05-30T00:13:02.626Z,11.90
2019-05-30T00:15:32.663Z,11.80
2019-05-30T00:18:02.944Z,11.90
2019-05-30T00:20:32.743Z,11.90
2019-05-30T00:23:02.543Z,11.90
2019-05-30T00:25:32.084Z,12.30
2019-05-30T00:28:01.641Z,11.90
2019-05-30T00:30:31.210Z,12.60
2019-05-30T00:33:00.814Z,12.80
2019-05-30T00:35:30.646Z,12.90
2019-05-30T00:38:01.861Z,13.00
2019-05-30T00:40:31.792Z,13.20
2019-05-30T00:43:02.105Z,13.50
2019-05-30T00:45:31.964Z,13.60
2019-05-30T00:48:02.275Z,13.10
2019-05-30T00:50:32.340Z,14.00
2019-05-30T00:53:02.895Z,14.20
2019-05-30T00:55:32.515Z,13.90
2019-05-30T00:58:02.749Z,14.20
2019-05-30T01:00:42.685Z,14.20
2019-05-30T01:03:05.297Z,14.80
2019-05-30T01:05:35.364Z,14.50
2019-05-30T01:08:05.161Z,14.90
2019-05-30T01:10:35.075Z,14.90
2019-05-30T01:13:05.185Z,15.10
2019-05-30T01:15:35.135Z,14.70
2019-05-30T01:18:05.342Z,15.40
2019-05-30T01:20:34.939Z,15.60
2019-05-30T01:23:05.334Z,16.00
2019-05-30T01:25:34.929Z,16.30
2019-05-30T01:28:05.658Z,16.40
2019-05-30T01:30:35.234Z,16.60
2019-05-30T01:33:05.890Z,16.90
2019-05-30T01:35:35.457Z,17.00
2019-05-30T01:38:06.066Z,17.00
2019-05-30T01:40:35.887Z,17.00
2019-05-30T01:43:06.181Z,17.30
2019-05-30T01:45:36.051Z,17.10
2019-05-30T01:48:06.452Z,17.20
2019-05-30T01:50:36.291Z,18.10
2019-05-30T01:53:06.721Z,18.40
2019-05-30T01:55:36.255Z,18.60
2019-05-30T01:58:07.227Z,18.80
2019-05-30T02:00:39.426Z,18.80
2019-05-30T02:03:09.866Z,18.90
2019-05-30T02:05:39.487Z,19.20
2019-05-30T02:08:10.147Z,19.40
2019-05-30T02:10:39.813Z,18.70
2019-05-30T02:13:09.959Z,19.10
2019-05-30T02:15:39.678Z,19.40
2019-05-30T02:18:09.980Z,19.10
2019-05-30T02:20:40.196Z,19.10
2019-05-30T02:23:11.484Z,19.80
2019-05-30T02:25:41.131Z,19.90
2019-05-30T02:28:10.655Z,20.20
2019-05-30T02:30:40.798Z,19.90
2019-05-30T02:33:12.837Z,20.70
2019-05-30T02:35:42.230Z,20.90
2019-05-30T02:38:12.072Z,21.30
2019-05-30T02:40:41.977Z,20.90
2019-05-30T02:43:12.414Z,21.70
2019-05-30T02:45:42.410Z,21.60
2019-05-30T02:48:12.505Z,21.90
2019-05-30T02:50:42.637Z,21.80
2019-05-30T02:53:13.209Z,22.50
2019-05-30T02:55:43.354Z,22.90
2019-05-30T02:58:13.290Z,23.00
2019-05-30T03:00:43.472Z,22.90
2019-05-30T03:03:14.603Z,23.20
2019-05-30T03:05:44.290Z,23.20
2019-05-30T03:08:14.650Z,22.80
2019-05-30T03:10:44.696Z,23.20
2019-05-30T03:13:14.631Z,23.50
2019-05-30T03:15:44.205Z,22.40
2019-05-30T03:18:14.971Z,23.00
2019-05-30T03:20:45.362Z,23.20
2019-05-30T03:23:15.423Z,22.40
2019-05-30T03:25:44.941Z,22.90
2019-05-30T03:28:14.995Z,22.90
2019-05-30T03:30:45.462Z,22.80
2019-05-30T03:33:36.433Z,22.60
2019-05-30T03:35:47.516Z,22.60
2019-05-30T03:38:17.144Z,21.90
2019-05-30T03:40:46.819Z,21.90
2019-05-30T03:43:16.376Z,22.20
2019-05-30T03:45:46.134Z,22.30
2019-05-30T03:48:18.850Z,21.90
2019-05-30T03:50:52.052Z,22.00
2019-05-30T03:53:22.499Z,22.50
2019-05-30T03:55:57.702Z,22.10
2019-05-30T03:58:46.531Z,21.90
2019-05-30T04:01:19.445Z,22.00
2019-05-30T04:04:07.183Z,22.00
2019-05-30T04:06:41.605Z,22.00
2019-05-30T04:09:21.646Z,22.20
2019-05-30T04:11:56.711Z,21.90
2019-05-30T04:14:29.444Z,21.90
2019-05-30T04:16:58.973Z,21.50
2019-05-30T04:19:28.772Z,21.90
2019-05-30T04:21:58.361Z,21.70
2019-05-30T04:24:27.894Z,21.50
2019-05-30T04:26:57.448Z,21.10
2019-05-30T04:29:26.974Z,21.30
2019-05-30T04:31:56.761Z,20.60
2019-05-30T04:34:26.615Z,20.70
2019-05-30T04:36:56.268Z,20.80
2019-05-30T04:39:26.052Z,20.20
2019-05-30T04:41:55.596Z,21.00
2019-05-30T04:44:25.378Z,19.60
2019-05-30T04:46:55.201Z,19.70
2019-05-30T04:49:24.999Z,20.20
2019-05-30T04:51:55.079Z,19.90
2019-05-30T04:54:24.864Z,20.30
2019-05-30T04:56:54.384Z,20.20
2019-05-30T04:59:24.464Z,20.20
2019-05-30T05:01:53.997Z,20.20
2019-05-30T05:04:23.773Z,19.40
2019-05-30T05:06:53.352Z,20.10
2019-05-30T05:09:22.900Z,19.30
2019-05-30T05:11:52.518Z,19.00
2019-05-30T05:14:22.707Z,19.40
2019-05-30T05:16:52.627Z,19.00
2019-05-30T05:19:25.623Z,18.70
2019-05-30T05:21:53.750Z,18.50
2019-05-30T05:24:23.740Z,18.20
2019-05-30T05:26:53.670Z,18.40
2019-05-30T05:29:24.172Z,17.90
2019-05-30T05:31:53.855Z,17.80
2019-05-30T05:34:23.428Z,18.10
2019-05-30T05:36:53.514Z,17.90
2019-05-30T05:39:24.207Z,17.70
2019-05-30T05:41:54.002Z,17.30
2019-05-30T05:44:24.553Z,17.30
2019-05-30T05:46:54.465Z,17.80
2019-05-30T05:49:24.883Z,17.30
2019-05-30T05:51:55.044Z,17.40
2019-05-30T05:54:25.141Z,16.70
2019-05-30T05:56:54.926Z,16.30
2019-05-30T05:59:25.191Z,15.50
2019-05-30T06:01:55.402Z,15.80
2019-05-30T06:04:25.273Z,15.70
2019-05-30T06:06:55.100Z,15.00
2019-05-30T06:09:24.923Z,15.10
2019-05-30T06:11:54.479Z,14.90
2019-05-30T06:14:24.308Z,14.70
2019-05-30T06:16:55.937Z,14.60
2019-05-30T06:19:25.444Z,14.60
2019-05-30T06:21:55.007Z,14.20
2019-05-30T06:24:25.629Z,14.30
2019-05-30T06:26:55.827Z,13.60
2019-05-30T06:29:26.266Z,13.50
2019-05-30T06:31:56.071Z,12.90
2019-05-30T06:34:32.762Z,13.00
2019-05-30T06:36:57.151Z,12.00
2019-05-30T06:39:27.604Z,11.70
2019-05-30T06:41:57.456Z,11.70
2019-05-30T06:44:28.102Z,11.20
2019-05-30T06:46:57.918Z,11.20
2019-05-30T06:49:28.923Z,11.00
2019-05-30T06:51:58.819Z,11.20
2019-05-30T06:54:29.548Z,11.50
2019-05-30T06:56:59.183Z,11.60
2019-05-30T06:59:29.665Z,11.60
2019-05-30T07:01:59.324Z,11.20
2019-05-30T07:04:34.521Z,11.30
2019-05-30T07:07:00.565Z,11.70
2019-05-30T07:09:30.982Z,12.00
2019-05-30T07:12:01.108Z,12.10
2019-05-30T07:14:31.489Z,11.20
2019-05-30T07:17:01.031Z,11.70
2019-05-30T07:19:31.661Z,11.30
2019-05-30T07:22:01.529Z,11.60
2019-05-30T07:24:31.926Z,11.20
2019-05-30T07:27:01.534Z,11.20
2019-05-30T07:29:32.116Z,12.00
2019-05-30T07:32:01.759Z,11.50
2019-05-30T07:34:32.184Z,11.60
2019-05-30T07:37:02.020Z,10.70
2019-05-30T07:39:35.072Z,10.40
2019-05-30T07:42:06.516Z,10.60
2019-05-30T07:44:35.041Z,10.90
2019-05-30T07:47:04.883Z,10.60
2019-05-30T07:49:34.668Z,10.60
2019-05-30T07:52:04.542Z,10.90
2019-05-30T07:54:35.154Z,10.20
2019-05-30T07:57:05.100Z,10.50
2019-05-30T07:59:34.763Z,10.60
2019-05-30T08:02:04.620Z,10.70
2019-05-30T08:04:34.217Z,10.80
2019-05-30T08:07:04.067Z,11.20
2019-05-30T08:09:34.999Z,11.50
2019-05-30T08:12:04.868Z,11.20
2019-05-30T08:14:35.303Z,11.20
2019-05-30T08:17:05.415Z,11.70
2019-05-30T08:19:35.984Z,11.50
2019-05-30T08:22:05.663Z,11.50
2019-05-30T08:24:36.343Z,11.60
2019-05-30T08:27:05.973Z,11.50
2019-05-30T08:29:36.438Z,11.00
2019-05-30T08:32:06.433Z,11.50
2019-05-30T08:34:36.965Z,11.40
2019-05-30T08:37:06.816Z,11.20
2019-05-30T08:39:37.367Z,11.00
2019-05-30T08:42:07.209Z,11.40
2019-05-30T08:44:37.893Z,11.70
2019-05-30T08:47:07.549Z,11.80
2019-05-30T08:49:38.256Z,11.80
2019-05-30T08:52:07.851Z,12.60
2019-05-30T08:54:38.453Z,12.70
2019-05-30T08:57:08.387Z,12.10
2019-05-30T08:59:38.601Z,11.90
2019-05-30T09:02:08.782Z,12.50
2019-05-30T09:04:38.348Z,11.90
2019-05-30T09:07:07.907Z,12.20
2019-05-30T09:09:38.164Z,12.60
2019-05-30T09:12:08.059Z,11.90
2019-05-30T09:14:39.186Z,11.80
2019-05-30T09:17:09.856Z,12.10
2019-05-30T09:19:39.791Z,12.00
2019-05-30T09:22:10.808Z,12.40
2019-05-30T09:24:41.986Z,12.10
2019-05-30T09:27:12.039Z,12.60
2019-05-30T09:29:42.711Z,12.80
2019-05-30T09:32:12.660Z,12.80
2019-05-30T09:34:43.262Z,13.10
2019-05-30T09:37:12.896Z,12.90
2019-05-30T09:39:43.387Z,12.90
2019-05-30T09:42:13.111Z,12.30
2019-05-30T09:44:44.124Z,12.10
2019-05-30T09:47:13.868Z,12.00
2019-05-30T09:49:44.593Z,12.10
2019-05-30T09:52:14.275Z,12.00
2019-05-30T09:54:44.282Z,12.10
2019-05-30T09:57:13.839Z,12.10
2019-05-30T09:59:44.966Z,12.00
2019-05-30T10:02:14.924Z,12.00
2019-05-30T10:04:45.756Z,12.10
2019-05-30T10:07:15.675Z,11.90
2019-05-30T10:09:47.032Z,12.10
2019-05-30T10:12:16.792Z,12.20
2019-05-30T10:14:46.901Z,12.00
2019-05-30T10:17:16.707Z,12.70
2019-05-30T10:19:47.142Z,12.20
2019-05-30T10:22:16.698Z,13.10
2019-05-30T10:24:47.526Z,12.70
2019-05-30T10:27:17.549Z,13.00
2019-05-30T10:29:47.640Z,13.50
2019-05-30T10:32:17.610Z,12.60
2019-05-30T10:34:47.969Z,12.20
2019-05-30T10:37:18.787Z,12.90
2019-05-30T10:39:49.176Z,12.30
2019-05-30T10:42:18.817Z,12.30
2019-05-30T10:44:49.926Z,12.50
2019-05-30T10:47:20.143Z,12.80
2019-05-30T10:49:49.918Z,12.60
2019-05-30T10:52:19.500Z,12.60
2019-05-30T10:54:49.417Z,12.40
2019-05-30T10:57:18.967Z,12.20
2019-05-30T10:59:49.379Z,12.40
2019-05-30T11:02:20.230Z,12.40
2019-05-30T11:04:50.674Z,12.70
2019-05-30T11:07:53.097Z,12.80
2019-05-30T11:10:20.354Z,12.70
2019-05-30T11:12:55.427Z,12.60
2019-05-30T11:15:21.334Z,12.80
2019-05-30T11:17:52.716Z,12.90
2019-05-30T11:20:22.704Z,13.10
2019-05-30T11:22:53.343Z,13.10
2019-05-30T11:25:23.936Z,13.10
2019-05-30T11:27:54.857Z,13.20
2019-05-30T11:30:24.997Z,13.30
2019-05-30T11:32:55.221Z,13.70
2019-05-30T11:35:24.780Z,13.20
2019-05-30T11:37:55.203Z,13.70
2019-05-30T11:40:25.051Z,13.90
2019-05-30T11:42:55.450Z,13.90
2019-05-30T11:45:25.295Z,14.60
2019-05-30T11:47:55.755Z,14.30
2019-05-30T11:50:25.894Z,15.00
2019-05-30T11:52:55.888Z,14.30
2019-05-30T11:55:25.689Z,14.80
2019-05-30T11:57:56.234Z,14.80
2019-05-30T12:00:26.219Z,14.70
2019-05-30T12:02:56.514Z,14.90
2019-05-30T12:05:27.059Z,15.00
2019-05-30T12:07:57.032Z,14.90
2019-05-30T12:10:27.442Z,15.10
2019-05-30T12:12:57.355Z,14.70
2019-05-30T12:15:27.046Z,14.50
2019-05-30T12:17:57.482Z,15.30
2019-05-30T12:20:27.709Z,15.20
2019-05-30T12:22:58.003Z,15.00
2019-05-30T12:25:27.869Z,15.10
2019-05-30T12:27:58.185Z,15.30
2019-05-30T12:30:28.227Z,15.40
2019-05-30T12:32:58.343Z,15.90
2019-05-30T12:35:27.911Z,16.20
2019-05-30T12:38:01.426Z,16.40
2019-05-30T12:40:29.444Z,16.30
2019-05-30T12:42:59.919Z,16.40
2019-05-30T12:45:30.701Z,16.50
2019-05-30T12:48:01.233Z,17.30
2019-05-30T12:50:30.870Z,17.80
2019-05-30T12:53:01.986Z,18.00
2019-05-30T12:55:31.683Z,17.90
2019-05-30T12:58:02.751Z,18.70
2019-05-30T13:00:34.695Z,18.80
2019-05-30T13:03:04.236Z,19.30
2019-05-30T13:05:34.280Z,19.20
2019-05-30T13:08:17.747Z,19.30
2019-05-30T13:10:35.019Z,19.10
2019-05-30T13:13:06.064Z,19.10
2019-05-30T13:15:36.019Z,20.20
2019-05-30T13:18:05.585Z,21.00
2019-05-30T13:20:35.250Z,21.60
2019-05-30T13:23:05.331Z,21.70
2019-05-30T13:25:35.143Z,22.00
2019-05-30T13:28:07.190Z,21.80
2019-05-30T13:30:36.019Z,21.80
2019-05-30T13:33:06.825Z,21.80
2019-05-30T13:35:36.517Z,21.70
2019-05-30T13:38:07.364Z,21.90
2019-05-30T13:40:37.259Z,21.90
2019-05-30T13:43:08.042Z,22.00
2019-05-30T13:45:37.587Z,22.00
2019-05-30T13:48:08.623Z,22.20
2019-05-30T13:50:38.223Z,22.20
2019-05-30T13:53:09.227Z,22.00
2019-05-30T13:55:39.208Z,22.20
2019-05-30T13:58:09.847Z,20.90
2019-05-30T14:00:40.197Z,21.50
2019-05-30T14:03:10.317Z,21.50
2019-05-30T14:05:40.266Z,21.50
2019-05-30T14:08:15.998Z,21.50
2019-05-30T14:10:41.087Z,21.60
2019-05-30T14:13:11.309Z,20.90
2019-05-30T14:15:40.891Z,20.90
2019-05-30T14:18:11.202Z,20.40
2019-05-30T14:20:40.720Z,20.20
2019-05-30T14:23:11.833Z,20.00
2019-05-30T14:25:41.761Z,19.50
2019-05-30T14:28:12.087Z,19.80
2019-05-30T14:30:41.868Z,19.20
2019-05-30T14:33:12.336Z,19.70
2019-05-30T14:35:41.928Z,19.50
2019-05-30T14:38:12.634Z,20.20
2019-05-30T14:40:42.605Z,20.60
2019-05-30T14:43:13.494Z,21.00
2019-05-30T14:45:43.499Z,20.80
2019-05-30T14:48:13.579Z,21.10
2019-05-30T14:50:43.157Z,20.70
2019-05-30T14:53:13.041Z,21.30
2019-05-30T14:55:42.708Z,21.60
2019-05-30T14:58:13.394Z,21.40
2019-05-30T15:00:43.127Z,21.10
2019-05-30T15:03:15.762Z,21.80
2019-05-30T15:05:43.859Z,22.10
2019-05-30T15:08:13.663Z,22.20
2019-05-30T15:10:43.187Z,23.10
2019-05-30T15:13:13.747Z,23.80
2019-05-30T15:15:43.771Z,24.50
2019-05-30T15:18:13.363Z,24.50
2019-05-30T15:20:43.503Z,24.40
2019-05-30T15:23:13.809Z,23.80
2019-05-30T15:25:44.312Z,24.00
2019-05-30T15:28:14.239Z,23.80
2019-05-30T15:30:43.828Z,23.90
2019-05-30T15:33:14.512Z,24.20
2019-05-30T15:35:44.602Z,24.70
2019-05-30T15:38:15.085Z,24.50
2019-05-30T15:40:44.631Z,24.20
2019-05-30T15:43:15.526Z,24.40
2019-05-30T15:45:45.443Z,24.60
2019-05-30T15:48:16.296Z,24.10
2019-05-30T15:50:46.175Z,23.90
2019-05-30T15:53:17.153Z,23.90
2019-05-30T15:55:46.804Z,23.50
2019-05-30T15:58:18.039Z,23.40
2019-05-30T16:00:47.740Z,23.40
2019-05-30T16:03:18.453Z,23.80
2019-05-30T16:05:48.364Z,24.00
2019-05-30T16:08:18.834Z,24.00
2019-05-30T16:10:48.643Z,23.80
2019-05-30T16:13:19.399Z,24.40
2019-05-30T16:15:49.291Z,23.60
2019-05-30T16:18:19.817Z,22.70
2019-05-30T16:20:49.505Z,23.10
2019-05-30T16:23:19.063Z,23.90
2019-05-30T16:25:48.603Z,24.10
2019-05-30T16:28:18.402Z,24.50
2019-05-30T16:30:47.976Z,25.20
2019-05-30T16:33:17.976Z,25.40
2019-05-30T16:35:48.101Z,26.10
2019-05-30T16:38:18.084Z,26.70
2019-05-30T16:40:47.706Z,27.20
2019-05-30T16:43:18.197Z,26.70
2019-05-30T16:45:47.750Z,26.80
2019-05-30T16:48:18.328Z,26.40
2019-05-30T16:50:48.199Z,26.10
2019-05-30T16:53:18.870Z,25.90
2019-05-30T16:55:48.871Z,26.00
2019-05-30T16:58:19.927Z,26.40
2019-05-30T17:00:49.974Z,27.00
2019-05-30T17:03:19.860Z,27.90
2019-05-30T17:05:49.455Z,28.50
2019-05-30T17:08:20.098Z,28.60
2019-05-30T17:10:50.243Z,29.50
2019-05-30T17:13:19.760Z,30.70
2019-05-30T17:15:49.348Z,31.00
2019-05-30T17:18:20.262Z,31.00
2019-05-30T17:20:50.052Z,31.90
2019-05-30T17:23:20.622Z,32.80
2019-05-30T17:25:50.534Z,32.20
2019-05-30T17:28:20.312Z,32.00
2019-05-30T17:30:50.282Z,31.60
2019-05-30T17:33:21.790Z,31.20
2019-05-30T17:35:51.018Z,31.20
2019-05-30T17:38:20.596Z,31.90
2019-05-30T17:40:50.663Z,31.70
2019-05-30T17:43:20.982Z,31.30
2019-05-30T17:45:50.768Z,31.20
2019-05-30T17:48:21.373Z,31.30
2019-05-30T17:50:51.211Z,31.70
2019-05-30T17:53:21.668Z,31.00
2019-05-30T17:55:51.503Z,29.90
2019-05-30T17:58:21.891Z,29.40
2019-05-30T18:00:52.033Z,28.60
2019-05-30T18:03:22.349Z,27.40
2019-05-30T18:05:51.916Z,26.90
2019-05-30T18:08:22.733Z,26.00
2019-05-30T18:10:54.128Z,25.90
2019-05-30T18:13:24.959Z,26.70
2019-05-30T18:15:54.573Z,26.50
2019-05-30T18:18:25.198Z,26.60
2019-05-30T18:20:54.887Z,26.90
2019-05-30T18:23:25.535Z,27.00
2019-05-30T18:25:55.619Z,27.10
2019-05-30T18:28:25.784Z,27.10
2019-05-30T18:30:55.315Z,27.30
2019-05-30T18:33:26.147Z,28.00
2019-05-30T18:35:55.738Z,28.00
2019-05-30T18:38:26.383Z,28.00
2019-05-30T18:41:10.174Z,28.60
2019-05-30T18:43:27.183Z,28.30
2019-05-30T18:45:57.248Z,28.10
2019-05-30T18:48:27.263Z,28.20
2019-05-30T18:50:56.798Z,27.80
2019-05-30T18:53:26.623Z,27.70
2019-05-30T18:55:56.170Z,27.70
2019-05-30T18:58:26.785Z,27.80
2019-05-30T19:00:56.397Z,28.10
2019-05-30T19:03:26.491Z,28.40
2019-05-30T19:05:56.091Z,28.40
2019-05-30T19:08:25.784Z,28.80
2019-05-30T19:10:55.569Z,29.20
2019-05-30T19:13:25.131Z,29.50
2019-05-30T19:15:54.936Z,29.60
2019-05-30T19:18:25.343Z,29.70
2019-05-30T19:20:54.956Z,29.40
2019-05-30T19:23:25.892Z,29.40
2019-05-30T19:25:55.462Z,29.80
2019-05-30T19:28:24.980Z,29.70
2019-05-30T19:30:54.794Z,29.70
2019-05-30T19:33:24.581Z,29.70
2019-05-30T19:35:54.377Z,29.40
2019-05-30T19:38:23.897Z,29.20
2019-05-30T19:40:55.031Z,29.10
2019-05-30T19:43:24.586Z,29.30
2019-05-30T19:45:54.108Z,29.30
2019-05-30T19:48:23.672Z,29.40
2019-05-30T19:50:53.503Z,29.60
2019-05-30T19:53:23.052Z,29.50
2019-05-30T19:55:52.864Z,29.90
2019-05-30T19:58:22.681Z,30.00
2019-05-30T20:00:58.420Z,30.50
2019-05-30T20:03:36.537Z,30.80
2019-05-30T20:05:55.722Z,31.60
2019-05-30T20:08:25.771Z,31.70
2019-05-30T20:10:55.638Z,31.30
2019-05-30T20:13:25.412Z,32.20
2019-05-30T20:15:55.018Z,32.30
2019-05-30T20:18:25.056Z,33.50
2019-05-30T20:20:57.874Z,33.40
2019-05-30T20:23:25.823Z,33.20
2019-05-30T20:25:55.391Z,33.60
2019-05-30T20:28:24.958Z,34.20
2019-05-30T20:30:54.491Z,33.60
2019-05-30T20:33:24.099Z,33.80
2019-05-30T20:35:53.891Z,34.40
2019-05-30T20:38:23.671Z,33.80
2019-05-30T20:40:53.263Z,34.00
2019-05-30T20:43:23.043Z,34.50
2019-05-30T20:45:53.159Z,33.90
2019-05-30T20:48:22.815Z,33.70
2019-05-30T20:50:52.339Z,34.40
2019-05-30T20:53:21.978Z,34.90
2019-05-30T20:55:51.501Z,35.00
2019-05-30T20:58:21.043Z,34.40
2019-05-30T21:00:50.865Z,34.80
2019-05-30T21:03:20.397Z,36.40
2019-05-30T21:05:50.499Z,36.60
2019-05-30T21:08:20.139Z,36.70
2019-05-30T21:10:51.331Z,36.60
2019-05-30T21:13:20.900Z,36.60
2019-05-30T21:15:50.855Z,36.70
2019-05-30T21:18:20.388Z,36.70
2019-05-30T21:20:50.031Z,36.30
2019-05-30T21:23:19.620Z,36.20
2019-05-30T21:25:49.460Z,36.00
2019-05-30T21:28:19.014Z,35.90
2019-05-30T21:30:48.835Z,35.80
2019-05-30T21:33:18.387Z,36.00
2019-05-30T21:35:48.256Z,35.60
2019-05-30T21:38:18.007Z,35.60
2019-05-30T21:40:48.665Z,36.20
2019-05-30T21:43:18.365Z,36.30
2019-05-30T21:45:49.032Z,35.60
2019-05-30T21:48:18.947Z,36.20
2019-05-30T21:50:49.207Z,36.10
2019-05-30T21:53:19.707Z,36.50
2019-05-30T21:55:50.139Z,36.60
2019-05-30T21:58:19.973Z,36.80
2019-05-30T22:01:29.126Z,36.70
2019-05-30T22:03:59.109Z,36.20
2019-05-30T22:06:28.716Z,36.10
2019-05-30T22:08:58.319Z,36.20
2019-05-30T22:11:27.889Z,36.20
2019-05-30T22:13:57.681Z,35.60
2019-05-30T22:16:27.239Z,35.90
2019-05-30T22:18:56.789Z,36.00
2019-05-30T22:21:26.350Z,35.40
2019-05-30T22:23:55.899Z,35.90
2019-05-30T22:26:25.733Z,36.20
2019-05-30T22:28:55.267Z,36.20
2019-05-30T22:31:24.803Z,36.50
2019-05-30T22:33:54.880Z,36.20
2019-05-30T22:36:24.655Z,35.90
2019-05-30T22:38:54.280Z,36.40
2019-05-30T22:41:23.817Z,35.80
2019-05-30T22:43:53.464Z,36.20
2019-05-30T22:46:22.999Z,35.50
2019-05-30T22:48:53.090Z,35.60
2019-05-30T22:51:22.612Z,36.00
2019-05-30T22:53:53.270Z,35.70
2019-05-30T22:56:23.201Z,35.90
2019-05-30T22:58:53.834Z,36.20
2019-05-30T23:01:23.949Z,35.90
2019-05-30T23:03:53.992Z,36.20
2019-05-30T23:06:23.925Z,36.10
2019-05-30T23:08:54.733Z,35.90
2019-05-30T23:11:24.483Z,35.50
2019-05-30T23:13:54.065Z,35.50
2019-05-30T23:16:23.609Z,35.50
2019-05-30T23:18:53.131Z,35.40
2019-05-30T23:21:22.693Z,35.90
2019-05-30T23:23:53.294Z,35.60
2019-05-30T23:26:23.237Z,35.80
2019-05-30T23:28:53.814Z,36.00
2019-05-30T23:31:23.347Z,36.00
2019-05-30T23:33:54.093Z,36.00
2019-05-30T23:36:24.203Z,36.40
2019-05-30T23:38:54.904Z,35.90
2019-05-30T23:41:24.739Z,36.00
2019-05-30T23:44:05.488Z,36.70
2019-05-30T23:46:25.502Z,35.80
2019-05-30T23:48:55.833Z,36.20
2019-05-30T23:51:25.780Z,35.70
2019-05-30T23:53:56.225Z,36.20
2019-05-30T23:56:25.775Z,36.50
2019-05-30T23:58:55.316Z,36.30
